sensor_id;sensor_type;location;lat;lon;timestamp;P1;durP1;ratioP1;P2;durP2;ratioP2
75450;SDS011;64029;48.244;9.188;2023-05-07T00:01:55;2.67;;;2.47;;
75450;SDS011;64029;48.244;9.188;2023-05-07T00:04:22;2.90;;;2.70;;
75450;SDS011;64029;48.244;9.188;2023-05-07T00:06:49;4.93;;;3.30;;
75450;SDS011;64029;48.244;9.188;2023-05-07T00:09:16;4.80;;;2.83;;
75450;SDS011;64029;48.244;9.188;2023-05-07T00:11:43;5.00;;;3.00;;
75450;SDS011;64029;48.244;9.188;2023-05-07T00:14:10;3.73;;;3.43;;
75450;SDS011;64029;48.244;9.188;2023-05-07T00:16:37;6.77;;;3.37;;
75450;SDS011;64029;48.244;9.188;2023-05-07T00:19:06;3.83;;;3.53;;
75450;SDS011;64029;48.244;9.188;2023-05-07T00:21:32;3.63;;;2.90;;
75450;SDS011;64029;48.244;9.188;2023-05-07T00:23:59;5.80;;;2.77;;
75450;SDS011;64029;48.244;9.188;2023-05-07T00:26:26;3.93;;;3.10;;
75450;SDS011;64029;48.244;9.188;2023-05-07T00:28:53;5.13;;;2.90;;
75450;SDS011;64029;48.244;9.188;2023-05-07T00:31:20;3.13;;;2.83;;
75450;SDS011;64029;48.244;9.188;2023-05-07T00:33:47;3.43;;;2.80;;
75450;SDS011;64029;48.244;9.188;2023-05-07T00:36:15;3.30;;;3.07;;
75450;SDS011;64029;48.244;9.188;2023-05-07T00:38:42;3.00;;;2.80;;
75450;SDS011;64029;48.244;9.188;2023-05-07T00:41:09;3.03;;;2.80;;
75450;SDS011;64029;48.244;9.188;2023-05-07T00:43:36;3.33;;;2.57;;
75450;SDS011;64029;48.244;9.188;2023-05-07T00:46:04;4.30;;;3.40;;
75450;SDS011;64029;48.244;9.188;2023-05-07T00:48:31;3.47;;;3.00;;
75450;SDS011;64029;48.244;9.188;2023-05-07T00:50:58;3.87;;;3.10;;
75450;SDS011;64029;48.244;9.188;2023-05-07T00:53:26;3.87;;;2.50;;
75450;SDS011;64029;48.244;9.188;2023-05-07T00:55:54;2.90;;;2.70;;
75450;SDS011;64029;48.244;9.188;2023-05-07T00:58:21;7.47;;;2.97;;
75450;SDS011;64029;48.244;9.188;2023-05-07T01:00:49;4.03;;;2.80;;
75450;SDS011;64029;48.244;9.188;2023-05-07T01:03:16;3.73;;;3.10;;
75450;SDS011;64029;48.244;9.188;2023-05-07T01:05:43;3.00;;;2.80;;
75450;SDS011;64029;48.244;9.188;2023-05-07T01:08:12;3.23;;;2.93;;
75450;SDS011;64029;48.244;9.188;2023-05-07T01:10:41;3.00;;;2.80;;
75450;SDS011;64029;48.244;9.188;2023-05-07T01:13:08;3.53;;;2.93;;
75450;SDS011;64029;48.244;9.188;2023-05-07T01:15:36;3.63;;;2.40;;
75450;SDS011;64029;48.244;9.188;2023-05-07T01:18:05;3.30;;;3.00;;
75450;SDS011;64029;48.244;9.188;2023-05-07T01:20:33;6.47;;;2.50;;
75450;SDS011;64029;48.244;9.188;2023-05-07T01:23:01;2.90;;;2.70;;
75450;SDS011;64029;48.244;9.188;2023-05-07T01:25:30;3.83;;;2.77;;
75450;SDS011;64029;48.244;9.188;2023-05-07T01:27:57;2.67;;;2.47;;
75450;SDS011;64029;48.244;9.188;2023-05-07T01:30:26;2.90;;;2.50;;
75450;SDS011;64029;48.244;9.188;2023-05-07T01:32:56;3.23;;;2.90;;
75450;SDS011;64029;48.244;9.188;2023-05-07T01:35:26;3.00;;;2.37;;
75450;SDS011;64029;48.244;9.188;2023-05-07T01:37:55;2.60;;;2.40;;
75450;SDS011;64029;48.244;9.188;2023-05-07T01:40:27;2.93;;;2.73;;
75450;SDS011;64029;48.244;9.188;2023-05-07T01:42:54;2.60;;;2.40;;
75450;SDS011;64029;48.244;9.188;2023-05-07T01:45:21;3.70;;;3.03;;
75450;SDS011;64029;48.244;9.188;2023-05-07T01:47:48;5.30;;;2.57;;
75450;SDS011;64029;48.244;9.188;2023-05-07T01:50:16;2.87;;;2.67;;
75450;SDS011;64029;48.244;9.188;2023-05-07T01:52:44;2.90;;;2.70;;
75450;SDS011;64029;48.244;9.188;2023-05-07T01:55:11;2.97;;;2.77;;
75450;SDS011;64029;48.244;9.188;2023-05-07T01:57:39;6.03;;;2.80;;
75450;SDS011;64029;48.244;9.188;2023-05-07T02:00:07;3.03;;;2.83;;
75450;SDS011;64029;48.244;9.188;2023-05-07T02:02:34;2.30;;;2.20;;
75450;SDS011;64029;48.244;9.188;2023-05-07T02:05:03;4.37;;;2.97;;
75450;SDS011;64029;48.244;9.188;2023-05-07T02:07:30;3.20;;;2.90;;
75450;SDS011;64029;48.244;9.188;2023-05-07T02:09:57;3.70;;;3.40;;
75450;SDS011;64029;48.244;9.188;2023-05-07T02:12:24;3.23;;;3.03;;
75450;SDS011;64029;48.244;9.188;2023-05-07T02:14:52;3.33;;;2.67;;
75450;SDS011;64029;48.244;9.188;2023-05-07T02:17:19;3.03;;;2.83;;
75450;SDS011;64029;48.244;9.188;2023-05-07T02:19:46;3.13;;;2.53;;
75450;SDS011;64029;48.244;9.188;2023-05-07T02:22:13;3.03;;;2.73;;
75450;SDS011;64029;48.244;9.188;2023-05-07T02:24:40;2.93;;;2.73;;
75450;SDS011;64029;48.244;9.188;2023-05-07T02:27:07;4.90;;;2.70;;
75450;SDS011;64029;48.244;9.188;2023-05-07T02:29:34;2.87;;;2.63;;
75450;SDS011;64029;48.244;9.188;2023-05-07T02:32:02;2.83;;;2.63;;
75450;SDS011;64029;48.244;9.188;2023-05-07T02:34:29;3.37;;;3.07;;
75450;SDS011;64029;48.244;9.188;2023-05-07T02:36:56;2.70;;;2.50;;
75450;SDS011;64029;48.244;9.188;2023-05-07T02:39:23;3.73;;;3.13;;
75450;SDS011;64029;48.244;9.188;2023-05-07T02:41:50;2.77;;;2.40;;
75450;SDS011;64029;48.244;9.188;2023-05-07T02:44:17;3.20;;;2.83;;
75450;SDS011;64029;48.244;9.188;2023-05-07T02:46:44;3.17;;;2.60;;
75450;SDS011;64029;48.244;9.188;2023-05-07T02:49:12;3.37;;;3.17;;
75450;SDS011;64029;48.244;9.188;2023-05-07T02:51:39;2.70;;;2.50;;
75450;SDS011;64029;48.244;9.188;2023-05-07T02:54:06;4.30;;;2.67;;
75450;SDS011;64029;48.244;9.188;2023-05-07T02:56:33;3.60;;;3.03;;
75450;SDS011;64029;48.244;9.188;2023-05-07T02:59:00;3.30;;;2.97;;
75450;SDS011;64029;48.244;9.188;2023-05-07T03:01:27;3.67;;;3.37;;
75450;SDS011;64029;48.244;9.188;2023-05-07T03:03:54;3.83;;;3.00;;
75450;SDS011;64029;48.244;9.188;2023-05-07T03:06:23;7.23;;;3.17;;
75450;SDS011;64029;48.244;9.188;2023-05-07T03:08:49;2.83;;;2.40;;
75450;SDS011;64029;48.244;9.188;2023-05-07T03:11:16;3.00;;;2.80;;
75450;SDS011;64029;48.244;9.188;2023-05-07T03:13:43;4.03;;;2.53;;
75450;SDS011;64029;48.244;9.188;2023-05-07T03:16:10;3.13;;;2.90;;
75450;SDS011;64029;48.244;9.188;2023-05-07T03:18:37;3.10;;;2.50;;
75450;SDS011;64029;48.244;9.188;2023-05-07T03:21:04;4.80;;;3.30;;
75450;SDS011;64029;48.244;9.188;2023-05-07T03:23:32;5.00;;;3.10;;
75450;SDS011;64029;48.244;9.188;2023-05-07T03:25:59;3.40;;;3.10;;
75450;SDS011;64029;48.244;9.188;2023-05-07T03:28:26;2.90;;;2.70;;
75450;SDS011;64029;48.244;9.188;2023-05-07T03:30:53;3.17;;;2.90;;
75450;SDS011;64029;48.244;9.188;2023-05-07T03:33:20;3.07;;;2.77;;
75450;SDS011;64029;48.244;9.188;2023-05-07T03:35:47;2.57;;;2.40;;
75450;SDS011;64029;48.244;9.188;2023-05-07T03:38:13;3.57;;;3.30;;
75450;SDS011;64029;48.244;9.188;2023-05-07T03:40:42;4.10;;;3.47;;
75450;SDS011;64029;48.244;9.188;2023-05-07T03:43:08;6.00;;;3.47;;
75450;SDS011;64029;48.244;9.188;2023-05-07T03:45:35;2.83;;;2.63;;
75450;SDS011;64029;48.244;9.188;2023-05-07T03:48:03;2.90;;;2.50;;
75450;SDS011;64029;48.244;9.188;2023-05-07T03:50:30;3.23;;;2.57;;
75450;SDS011;64029;48.244;9.188;2023-05-07T03:52:57;4.80;;;2.60;;
75450;SDS011;64029;48.244;9.188;2023-05-07T03:55:24;3.80;;;2.90;;
75450;SDS011;64029;48.244;9.188;2023-05-07T03:57:53;3.20;;;2.90;;
75450;SDS011;64029;48.244;9.188;2023-05-07T04:00:20;4.23;;;2.70;;
75450;SDS011;64029;48.244;9.188;2023-05-07T04:02:47;4.23;;;2.83;;
75450;SDS011;64029;48.244;9.188;2023-05-07T04:05:14;3.77;;;2.80;;
75450;SDS011;64029;48.244;9.188;2023-05-07T04:07:41;2.70;;;2.50;;
75450;SDS011;64029;48.244;9.188;2023-05-07T04:10:08;3.13;;;2.70;;
75450;SDS011;64029;48.244;9.188;2023-05-07T04:12:35;3.47;;;3.17;;
75450;SDS011;64029;48.244;9.188;2023-05-07T04:15:04;3.30;;;3.10;;
75450;SDS011;64029;48.244;9.188;2023-05-07T04:17:31;4.77;;;2.60;;
75450;SDS011;64029;48.244;9.188;2023-05-07T04:19:58;3.13;;;2.83;;
75450;SDS011;64029;48.244;9.188;2023-05-07T04:22:25;3.20;;;2.90;;
75450;SDS011;64029;48.244;9.188;2023-05-07T04:24:52;4.03;;;3.63;;
75450;SDS011;64029;48.244;9.188;2023-05-07T04:27:19;4.90;;;4.00;;
75450;SDS011;64029;48.244;9.188;2023-05-07T04:29:46;4.60;;;3.80;;
75450;SDS011;64029;48.244;9.188;2023-05-07T04:32:15;4.40;;;4.00;;
75450;SDS011;64029;48.244;9.188;2023-05-07T04:34:42;4.43;;;4.03;;
75450;SDS011;64029;48.244;9.188;2023-05-07T04:37:09;5.00;;;4.60;;
75450;SDS011;64029;48.244;9.188;2023-05-07T04:39:36;4.07;;;3.77;;
75450;SDS011;64029;48.244;9.188;2023-05-07T04:42:03;3.83;;;3.53;;
75450;SDS011;64029;48.244;9.188;2023-05-07T04:44:30;6.17;;;3.50;;
75450;SDS011;64029;48.244;9.188;2023-05-07T04:46:57;3.40;;;3.20;;
75450;SDS011;64029;48.244;9.188;2023-05-07T04:49:26;3.07;;;2.83;;
75450;SDS011;64029;48.244;9.188;2023-05-07T04:51:52;3.80;;;3.47;;
75450;SDS011;64029;48.244;9.188;2023-05-07T04:54:19;4.07;;;3.67;;
75450;SDS011;64029;48.244;9.188;2023-05-07T04:56:46;7.40;;;3.67;;
75450;SDS011;64029;48.244;9.188;2023-05-07T04:59:13;5.73;;;3.20;;
75450;SDS011;64029;48.244;9.188;2023-05-07T05:01:40;4.30;;;3.23;;
75450;SDS011;64029;48.244;9.188;2023-05-07T05:04:07;4.17;;;3.77;;
75450;SDS011;64029;48.244;9.188;2023-05-07T05:06:35;3.93;;;3.60;;
75450;SDS011;64029;48.244;9.188;2023-05-07T05:09:02;4.13;;;3.73;;
75450;SDS011;64029;48.244;9.188;2023-05-07T05:11:29;4.50;;;4.20;;
75450;SDS011;64029;48.244;9.188;2023-05-07T05:13:56;6.17;;;4.13;;
75450;SDS011;64029;48.244;9.188;2023-05-07T05:16:25;4.07;;;3.70;;
75450;SDS011;64029;48.244;9.188;2023-05-07T05:18:52;7.93;;;3.57;;
75450;SDS011;64029;48.244;9.188;2023-05-07T05:21:20;3.73;;;3.43;;
75450;SDS011;64029;48.244;9.188;2023-05-07T05:23:48;4.43;;;3.43;;
75450;SDS011;64029;48.244;9.188;2023-05-07T05:26:15;4.27;;;3.57;;
75450;SDS011;64029;48.244;9.188;2023-05-07T05:28:42;3.47;;;3.20;;
75450;SDS011;64029;48.244;9.188;2023-05-07T05:31:09;3.70;;;3.40;;
75450;SDS011;64029;48.244;9.188;2023-05-07T05:33:36;5.20;;;3.53;;
75450;SDS011;64029;48.244;9.188;2023-05-07T05:36:04;3.77;;;3.37;;
75450;SDS011;64029;48.244;9.188;2023-05-07T05:38:31;3.80;;;3.50;;
75450;SDS011;64029;48.244;9.188;2023-05-07T05:41:00;4.07;;;3.60;;
75450;SDS011;64029;48.244;9.188;2023-05-07T05:43:27;4.50;;;4.10;;
75450;SDS011;64029;48.244;9.188;2023-05-07T05:45:54;5.27;;;3.90;;
75450;SDS011;64029;48.244;9.188;2023-05-07T05:48:21;3.77;;;3.47;;
75450;SDS011;64029;48.244;9.188;2023-05-07T05:50:49;4.50;;;4.10;;
75450;SDS011;64029;48.244;9.188;2023-05-07T05:53:16;4.87;;;4.37;;
75450;SDS011;64029;48.244;9.188;2023-05-07T05:55:42;5.17;;;4.67;;
75450;SDS011;64029;48.244;9.188;2023-05-07T05:58:11;6.43;;;4.10;;
75450;SDS011;64029;48.244;9.188;2023-05-07T06:00:38;4.97;;;3.50;;
75450;SDS011;64029;48.244;9.188;2023-05-07T06:03:05;4.47;;;4.07;;
75450;SDS011;64029;48.244;9.188;2023-05-07T06:05:32;4.77;;;3.80;;
75450;SDS011;64029;48.244;9.188;2023-05-07T06:07:58;5.00;;;3.50;;
75450;SDS011;64029;48.244;9.188;2023-05-07T06:10:25;4.50;;;3.80;;
75450;SDS011;64029;48.244;9.188;2023-05-07T06:12:53;4.20;;;3.30;;
75450;SDS011;64029;48.244;9.188;2023-05-07T06:15:21;3.90;;;3.60;;
75450;SDS011;64029;48.244;9.188;2023-05-07T06:17:49;7.47;;;4.03;;
75450;SDS011;64029;48.244;9.188;2023-05-07T06:20:16;6.63;;;4.20;;
75450;SDS011;64029;48.244;9.188;2023-05-07T06:22:43;5.17;;;4.70;;
75450;SDS011;64029;48.244;9.188;2023-05-07T06:25:10;5.43;;;4.73;;
75450;SDS011;64029;48.244;9.188;2023-05-07T06:27:37;5.70;;;5.20;;
75450;SDS011;64029;48.244;9.188;2023-05-07T06:30:05;7.27;;;5.53;;
75450;SDS011;64029;48.244;9.188;2023-05-07T06:32:34;6.33;;;5.03;;
75450;SDS011;64029;48.244;9.188;2023-05-07T06:35:01;6.23;;;5.17;;
75450;SDS011;64029;48.244;9.188;2023-05-07T06:37:28;9.40;;;5.50;;
75450;SDS011;64029;48.244;9.188;2023-05-07T06:39:54;4.90;;;4.50;;
75450;SDS011;64029;48.244;9.188;2023-05-07T06:42:24;5.97;;;4.53;;
75450;SDS011;64029;48.244;9.188;2023-05-07T06:44:51;4.97;;;4.50;;
75450;SDS011;64029;48.244;9.188;2023-05-07T06:47:18;5.73;;;4.80;;
75450;SDS011;64029;48.244;9.188;2023-05-07T06:49:46;4.13;;;3.73;;
75450;SDS011;64029;48.244;9.188;2023-05-07T06:52:13;4.80;;;4.40;;
75450;SDS011;64029;48.244;9.188;2023-05-07T06:54:40;4.20;;;3.80;;
75450;SDS011;64029;48.244;9.188;2023-05-07T06:57:07;4.53;;;3.80;;
75450;SDS011;64029;48.244;9.188;2023-05-07T06:59:34;5.83;;;3.80;;
75450;SDS011;64029;48.244;9.188;2023-05-07T07:02:01;5.33;;;3.70;;
75450;SDS011;64029;48.244;9.188;2023-05-07T07:04:32;4.07;;;3.77;;
75450;SDS011;64029;48.244;9.188;2023-05-07T07:07:01;4.70;;;3.27;;
75450;SDS011;64029;48.244;9.188;2023-05-07T07:09:28;3.70;;;3.40;;
75450;SDS011;64029;48.244;9.188;2023-05-07T07:11:55;4.17;;;3.20;;
75450;SDS011;64029;48.244;9.188;2023-05-07T07:14:22;3.27;;;3.07;;
75450;SDS011;64029;48.244;9.188;2023-05-07T07:16:49;3.70;;;3.30;;
75450;SDS011;64029;48.244;9.188;2023-05-07T07:19:15;4.70;;;3.40;;
75450;SDS011;64029;48.244;9.188;2023-05-07T07:21:42;3.90;;;3.30;;
75450;SDS011;64029;48.244;9.188;2023-05-07T07:24:11;3.17;;;2.87;;
75450;SDS011;64029;48.244;9.188;2023-05-07T07:26:44;4.87;;;3.20;;
75450;SDS011;64029;48.244;9.188;2023-05-07T07:29:11;3.20;;;2.90;;
75450;SDS011;64029;48.244;9.188;2023-05-07T07:31:38;4.80;;;3.50;;
75450;SDS011;64029;48.244;9.188;2023-05-07T07:34:05;3.83;;;3.43;;
75450;SDS011;64029;48.244;9.188;2023-05-07T07:36:32;4.10;;;3.40;;
75450;SDS011;64029;48.244;9.188;2023-05-07T07:38:59;3.37;;;2.80;;
75450;SDS011;64029;48.244;9.188;2023-05-07T07:41:28;4.03;;;3.10;;
75450;SDS011;64029;48.244;9.188;2023-05-07T07:43:55;2.60;;;2.40;;
75450;SDS011;64029;48.244;9.188;2023-05-07T07:46:22;3.97;;;3.63;;
75450;SDS011;64029;48.244;9.188;2023-05-07T07:48:49;6.80;;;3.20;;
75450;SDS011;64029;48.244;9.188;2023-05-07T07:51:15;4.33;;;3.00;;
75450;SDS011;64029;48.244;9.188;2023-05-07T07:53:42;3.30;;;3.00;;
75450;SDS011;64029;48.244;9.188;2023-05-07T07:56:09;9.37;;;7.20;;
75450;SDS011;64029;48.244;9.188;2023-05-07T07:58:38;13.30;;;9.70;;
75450;SDS011;64029;48.244;9.188;2023-05-07T08:01:07;10.53;;;7.50;;
75450;SDS011;64029;48.244;9.188;2023-05-07T08:03:34;9.33;;;7.30;;
75450;SDS011;64029;48.244;9.188;2023-05-07T08:06:01;5.80;;;4.77;;
75450;SDS011;64029;48.244;9.188;2023-05-07T08:08:28;6.50;;;4.47;;
75450;SDS011;64029;48.244;9.188;2023-05-07T08:10:55;5.00;;;4.00;;
75450;SDS011;64029;48.244;9.188;2023-05-07T08:13:22;12.27;;;4.00;;
75450;SDS011;64029;48.244;9.188;2023-05-07T08:15:50;3.33;;;3.03;;
75450;SDS011;64029;48.244;9.188;2023-05-07T08:18:17;3.87;;;3.47;;
75450;SDS011;64029;48.244;9.188;2023-05-07T08:20:44;5.40;;;3.33;;
75450;SDS011;64029;48.244;9.188;2023-05-07T08:23:11;3.70;;;3.20;;
75450;SDS011;64029;48.244;9.188;2023-05-07T08:25:38;7.90;;;3.23;;
75450;SDS011;64029;48.244;9.188;2023-05-07T08:28:07;4.77;;;3.10;;
75450;SDS011;64029;48.244;9.188;2023-05-07T08:30:34;3.70;;;3.33;;
75450;SDS011;64029;48.244;9.188;2023-05-07T08:33:02;3.50;;;2.70;;
75450;SDS011;64029;48.244;9.188;2023-05-07T08:35:29;4.03;;;2.87;;
75450;SDS011;64029;48.244;9.188;2023-05-07T08:37:56;3.90;;;3.20;;
75450;SDS011;64029;48.244;9.188;2023-05-07T08:40:24;2.33;;;2.13;;
75450;SDS011;64029;48.244;9.188;2023-05-07T08:42:52;4.27;;;3.13;;
75450;SDS011;64029;48.244;9.188;2023-05-07T08:45:20;5.17;;;2.80;;
75450;SDS011;64029;48.244;9.188;2023-05-07T08:47:47;2.80;;;2.03;;
75450;SDS011;64029;48.244;9.188;2023-05-07T08:50:19;3.83;;;2.20;;
75450;SDS011;64029;48.244;9.188;2023-05-07T08:52:47;2.40;;;2.20;;
75450;SDS011;64029;48.244;9.188;2023-05-07T08:55:14;3.97;;;2.10;;
75450;SDS011;64029;48.244;9.188;2023-05-07T08:57:41;2.53;;;2.23;;
75450;SDS011;64029;48.244;9.188;2023-05-07T09:00:09;2.20;;;2.00;;
75450;SDS011;64029;48.244;9.188;2023-05-07T09:02:37;2.10;;;1.90;;
75450;SDS011;64029;48.244;9.188;2023-05-07T09:05:04;3.10;;;2.03;;
75450;SDS011;64029;48.244;9.188;2023-05-07T09:07:35;2.53;;;2.33;;
75450;SDS011;64029;48.244;9.188;2023-05-07T09:10:02;2.60;;;2.40;;
75450;SDS011;64029;48.244;9.188;2023-05-07T09:12:30;4.13;;;2.67;;
75450;SDS011;64029;48.244;9.188;2023-05-07T09:15:00;2.63;;;2.33;;
75450;SDS011;64029;48.244;9.188;2023-05-07T09:17:29;3.40;;;2.23;;
75450;SDS011;64029;48.244;9.188;2023-05-07T09:19:56;3.77;;;2.20;;
75450;SDS011;64029;48.244;9.188;2023-05-07T09:22:28;3.37;;;2.43;;
75450;SDS011;64029;48.244;9.188;2023-05-07T09:24:59;2.53;;;2.00;;
75450;SDS011;64029;48.244;9.188;2023-05-07T09:27:27;2.80;;;1.93;;
75450;SDS011;64029;48.244;9.188;2023-05-07T09:29:54;2.13;;;2.03;;
75450;SDS011;64029;48.244;9.188;2023-05-07T09:32:21;2.23;;;2.10;;
75450;SDS011;64029;48.244;9.188;2023-05-07T09:34:48;3.30;;;2.20;;
75450;SDS011;64029;48.244;9.188;2023-05-07T09:37:15;4.03;;;2.60;;
75450;SDS011;64029;48.244;9.188;2023-05-07T09:39:43;2.50;;;2.30;;
75450;SDS011;64029;48.244;9.188;2023-05-07T09:42:12;2.93;;;1.90;;
75450;SDS011;64029;48.244;9.188;2023-05-07T09:44:40;3.00;;;2.10;;
75450;SDS011;64029;48.244;9.188;2023-05-07T09:47:07;2.47;;;2.27;;
75450;SDS011;64029;48.244;9.188;2023-05-07T09:49:36;2.23;;;2.07;;
75450;SDS011;64029;48.244;9.188;2023-05-07T09:52:08;5.00;;;2.20;;
75450;SDS011;64029;48.244;9.188;2023-05-07T09:54:36;2.80;;;2.03;;
75450;SDS011;64029;48.244;9.188;2023-05-07T09:57:04;2.53;;;2.17;;
75450;SDS011;64029;48.244;9.188;2023-05-07T09:59:33;2.20;;;2.00;;
75450;SDS011;64029;48.244;9.188;2023-05-07T10:02:03;3.40;;;1.90;;
75450;SDS011;64029;48.244;9.188;2023-05-07T10:04:31;3.57;;;1.90;;
75450;SDS011;64029;48.244;9.188;2023-05-07T10:06:58;3.10;;;2.10;;
75450;SDS011;64029;48.244;9.188;2023-05-07T10:09:25;2.20;;;2.00;;
75450;SDS011;64029;48.244;9.188;2023-05-07T10:11:52;2.17;;;1.97;;
75450;SDS011;64029;48.244;9.188;2023-05-07T10:14:21;5.83;;;2.20;;
75450;SDS011;64029;48.244;9.188;2023-05-07T10:16:49;3.57;;;2.43;;
75450;SDS011;64029;48.244;9.188;2023-05-07T10:19:17;5.47;;;2.43;;
75450;SDS011;64029;48.244;9.188;2023-05-07T10:21:48;2.40;;;2.20;;
75450;SDS011;64029;48.244;9.188;2023-05-07T10:24:22;2.67;;;2.47;;
75450;SDS011;64029;48.244;9.188;2023-05-07T10:26:53;2.70;;;2.50;;
75450;SDS011;64029;48.244;9.188;2023-05-07T10:29:24;2.50;;;2.30;;
75450;SDS011;64029;48.244;9.188;2023-05-07T10:32:02;2.43;;;2.20;;
75450;SDS011;64029;48.244;9.188;2023-05-07T10:34:44;2.90;;;2.70;;
75450;SDS011;64029;48.244;9.188;2023-05-07T10:37:16;2.33;;;2.20;;
75450;SDS011;64029;48.244;9.188;2023-05-07T10:39:45;3.63;;;2.27;;
75450;SDS011;64029;48.244;9.188;2023-05-07T10:42:13;2.90;;;2.00;;
75450;SDS011;64029;48.244;9.188;2023-05-07T10:44:46;4.93;;;2.20;;
75450;SDS011;64029;48.244;9.188;2023-05-07T10:47:15;2.30;;;2.10;;
75450;SDS011;64029;48.244;9.188;2023-05-07T10:55:49;4.33;;;2.10;;
75450;SDS011;64029;48.244;9.188;2023-05-07T10:58:25;3.30;;;2.63;;
75450;SDS011;64029;48.244;9.188;2023-05-07T11:00:57;4.00;;;2.43;;
75450;SDS011;64029;48.244;9.188;2023-05-07T11:03:27;3.17;;;2.50;;
75450;SDS011;64029;48.244;9.188;2023-05-07T11:06:10;3.43;;;2.30;;
75450;SDS011;64029;48.244;9.188;2023-05-07T11:08:53;2.73;;;2.53;;
75450;SDS011;64029;48.244;9.188;2023-05-07T11:14:13;3.73;;;2.83;;
75450;SDS011;64029;48.244;9.188;2023-05-07T11:16:40;3.10;;;2.60;;
75450;SDS011;64029;48.244;9.188;2023-05-07T11:19:11;3.50;;;3.20;;
75450;SDS011;64029;48.244;9.188;2023-05-07T11:21:41;3.17;;;2.80;;
75450;SDS011;64029;48.244;9.188;2023-05-07T11:24:08;2.97;;;2.77;;
75450;SDS011;64029;48.244;9.188;2023-05-07T11:26:43;7.50;;;3.63;;
75450;SDS011;64029;48.244;9.188;2023-05-07T11:29:12;5.93;;;2.93;;
75450;SDS011;64029;48.244;9.188;2023-05-07T11:31:39;3.17;;;2.43;;
75450;SDS011;64029;48.244;9.188;2023-05-07T11:34:07;2.93;;;2.73;;
75450;SDS011;64029;48.244;9.188;2023-05-07T11:36:40;3.63;;;2.70;;
75450;SDS011;64029;48.244;9.188;2023-05-07T11:39:29;4.63;;;2.97;;
75450;SDS011;64029;48.244;9.188;2023-05-07T11:41:58;2.77;;;2.57;;
75450;SDS011;64029;48.244;9.188;2023-05-07T11:44:25;3.83;;;2.47;;
75450;SDS011;64029;48.244;9.188;2023-05-07T11:47:05;3.40;;;3.10;;
75450;SDS011;64029;48.244;9.188;2023-05-07T11:49:32;3.30;;;2.87;;
75450;SDS011;64029;48.244;9.188;2023-05-07T11:52:02;4.70;;;3.53;;
75450;SDS011;64029;48.244;9.188;2023-05-07T11:54:34;3.33;;;3.10;;
75450;SDS011;64029;48.244;9.188;2023-05-07T11:57:02;4.30;;;3.10;;
75450;SDS011;64029;48.244;9.188;2023-05-07T11:59:29;3.20;;;2.77;;
75450;SDS011;64029;48.244;9.188;2023-05-07T12:01:58;5.60;;;2.70;;
75450;SDS011;64029;48.244;9.188;2023-05-07T12:04:25;3.40;;;2.67;;
75450;SDS011;64029;48.244;9.188;2023-05-07T12:06:53;3.70;;;3.40;;
75450;SDS011;64029;48.244;9.188;2023-05-07T12:09:25;5.50;;;2.80;;
75450;SDS011;64029;48.244;9.188;2023-05-07T12:11:52;3.63;;;2.73;;
75450;SDS011;64029;48.244;9.188;2023-05-07T12:14:21;4.27;;;2.67;;
75450;SDS011;64029;48.244;9.188;2023-05-07T12:16:48;2.80;;;2.60;;
75450;SDS011;64029;48.244;9.188;2023-05-07T12:19:15;3.40;;;2.50;;
75450;SDS011;64029;48.244;9.188;2023-05-07T12:21:42;2.93;;;2.67;;
75450;SDS011;64029;48.244;9.188;2023-05-07T12:24:12;4.83;;;2.70;;
75450;SDS011;64029;48.244;9.188;2023-05-07T12:26:42;2.93;;;2.70;;
75450;SDS011;64029;48.244;9.188;2023-05-07T12:29:09;3.00;;;2.80;;
75450;SDS011;64029;48.244;9.188;2023-05-07T12:31:36;4.80;;;3.00;;
75450;SDS011;64029;48.244;9.188;2023-05-07T12:34:07;3.50;;;3.00;;
75450;SDS011;64029;48.244;9.188;2023-05-07T12:36:37;3.60;;;2.57;;
75450;SDS011;64029;48.244;9.188;2023-05-07T12:39:04;3.37;;;3.13;;
75450;SDS011;64029;48.244;9.188;2023-05-07T12:41:35;2.70;;;2.50;;
75450;SDS011;64029;48.244;9.188;2023-05-07T12:44:05;3.10;;;2.90;;
75450;SDS011;64029;48.244;9.188;2023-05-07T12:46:38;3.30;;;3.00;;
75450;SDS011;64029;48.244;9.188;2023-05-07T12:49:05;3.30;;;2.70;;
75450;SDS011;64029;48.244;9.188;2023-05-07T12:51:32;3.00;;;2.70;;
75450;SDS011;64029;48.244;9.188;2023-05-07T12:54:01;3.00;;;2.70;;
75450;SDS011;64029;48.244;9.188;2023-05-07T12:56:30;3.40;;;3.03;;
75450;SDS011;64029;48.244;9.188;2023-05-07T12:58:57;4.07;;;3.77;;
75450;SDS011;64029;48.244;9.188;2023-05-07T13:01:29;5.13;;;3.67;;
75450;SDS011;64029;48.244;9.188;2023-05-07T13:04:00;3.90;;;3.60;;
75450;SDS011;64029;48.244;9.188;2023-05-07T13:06:29;4.93;;;3.40;;
75450;SDS011;64029;48.244;9.188;2023-05-07T13:08:57;4.87;;;3.77;;
75450;SDS011;64029;48.244;9.188;2023-05-07T13:11:23;4.00;;;3.70;;
75450;SDS011;64029;48.244;9.188;2023-05-07T13:13:50;5.10;;;4.37;;
75450;SDS011;64029;48.244;9.188;2023-05-07T13:16:19;5.13;;;3.50;;
75450;SDS011;64029;48.244;9.188;2023-05-07T13:18:47;3.50;;;3.20;;
75450;SDS011;64029;48.244;9.188;2023-05-07T13:21:14;3.73;;;3.10;;
75450;SDS011;64029;48.244;9.188;2023-05-07T13:23:41;5.40;;;3.17;;
75450;SDS011;64029;48.244;9.188;2023-05-07T13:26:08;3.33;;;2.83;;
75450;SDS011;64029;48.244;9.188;2023-05-07T13:28:35;2.90;;;2.70;;
75450;SDS011;64029;48.244;9.188;2023-05-07T13:31:02;5.07;;;3.07;;
75450;SDS011;64029;48.244;9.188;2023-05-07T13:33:29;3.03;;;2.70;;
75450;SDS011;64029;48.244;9.188;2023-05-07T13:35:58;5.00;;;2.40;;
75450;SDS011;64029;48.244;9.188;2023-05-07T13:38:25;2.70;;;2.50;;
75450;SDS011;64029;48.244;9.188;2023-05-07T13:40:52;5.30;;;2.90;;
75450;SDS011;64029;48.244;9.188;2023-05-07T13:43:19;2.97;;;1.90;;
75450;SDS011;64029;48.244;9.188;2023-05-07T13:45:46;2.70;;;2.23;;
75450;SDS011;64029;48.244;9.188;2023-05-07T13:48:15;3.17;;;2.10;;
75450;SDS011;64029;48.244;9.188;2023-05-07T13:50:41;2.93;;;2.37;;
75450;SDS011;64029;48.244;9.188;2023-05-07T13:53:10;3.90;;;2.20;;
75450;SDS011;64029;48.244;9.188;2023-05-07T13:55:37;4.33;;;2.30;;
75450;SDS011;64029;48.244;9.188;2023-05-07T13:58:03;3.73;;;2.33;;
75450;SDS011;64029;48.244;9.188;2023-05-07T14:00:30;7.30;;;2.47;;
75450;SDS011;64029;48.244;9.188;2023-05-07T14:02:57;2.50;;;2.30;;
75450;SDS011;64029;48.244;9.188;2023-05-07T14:05:24;7.77;;;3.57;;
75450;SDS011;64029;48.244;9.188;2023-05-07T14:07:53;4.63;;;3.17;;
75450;SDS011;64029;48.244;9.188;2023-05-07T14:10:21;4.80;;;2.80;;
75450;SDS011;64029;48.244;9.188;2023-05-07T14:12:48;3.33;;;2.43;;
75450;SDS011;64029;48.244;9.188;2023-05-07T14:15:15;3.47;;;2.50;;
75450;SDS011;64029;48.244;9.188;2023-05-07T14:17:42;2.67;;;2.40;;
75450;SDS011;64029;48.244;9.188;2023-05-07T14:20:09;4.33;;;2.33;;
75450;SDS011;64029;48.244;9.188;2023-05-07T14:22:37;5.50;;;2.70;;
75450;SDS011;64029;48.244;9.188;2023-05-07T14:25:05;4.20;;;2.57;;
75450;SDS011;64029;48.244;9.188;2023-05-07T14:27:34;6.83;;;2.40;;
75450;SDS011;64029;48.244;9.188;2023-05-07T14:30:01;11.53;;;3.40;;
75450;SDS011;64029;48.244;9.188;2023-05-07T14:32:28;3.27;;;2.97;;
75450;SDS011;64029;48.244;9.188;2023-05-07T14:34:55;5.17;;;2.40;;
75450;SDS011;64029;48.244;9.188;2023-05-07T14:37:24;7.30;;;3.00;;
75450;SDS011;64029;48.244;9.188;2023-05-07T14:39:51;4.63;;;2.90;;
75450;SDS011;64029;48.244;9.188;2023-05-07T14:42:18;4.33;;;2.60;;
75450;SDS011;64029;48.244;9.188;2023-05-07T14:44:46;5.43;;;2.83;;
75450;SDS011;64029;48.244;9.188;2023-05-07T14:47:13;5.43;;;2.43;;
75450;SDS011;64029;48.244;9.188;2023-05-07T14:49:40;4.43;;;2.63;;
75450;SDS011;64029;48.244;9.188;2023-05-07T14:52:08;3.33;;;3.00;;
75450;SDS011;64029;48.244;9.188;2023-05-07T14:54:36;6.17;;;3.20;;
75450;SDS011;64029;48.244;9.188;2023-05-07T14:57:04;3.30;;;2.63;;
75450;SDS011;64029;48.244;9.188;2023-05-07T14:59:31;3.30;;;2.60;;
75450;SDS011;64029;48.244;9.188;2023-05-07T15:02:00;4.60;;;2.53;;